| time (UTC) | temp C | wind direction | speed KPH | gust KPH | rain 1hr cm | rain 24hr cm | rain mn cm | humidity % | barometer mb |
| 20260507001539 | 20 | 147 | 14.5 | 20.9 | 0.00 | 0.00 | 0.00 | 55 | 1014.0 |
| 20260507001036 | 20 | 280 | 4.8 | 17.7 | 0.00 | 0.00 | 0.00 | 56 | 1014.1 |
| 20260507000532 | 20 | 136 | 9.7 | 17.7 | 0.00 | 0.00 | 0.00 | 55 | 1014.0 |
| 20260507000028 | 21 | 179 | 14.5 | 16.1 | 0.00 | 0.00 | 0.00 | 54 | 1013.8 |
| 20260506235526 | 20 | 138 | 3.2 | 11.3 | 0.00 | 0.00 | 0.00 | 55 | 1014.0 |
| 20260506235021 | 20 | 161 | 9.7 | 17.7 | 0.00 | 0.00 | 0.00 | 54 | 1014.1 |
| 20260506234519 | 21 | 174 | 8.0 | 20.9 | 0.00 | 0.00 | 0.00 | 53 | 1014.1 |
| 20260506234016 | 21 | 288 | 3.2 | 16.1 | 0.00 | 0.00 | 0.00 | 54 | 1014.0 |
| 20260506233512 | 21 | 164 | 12.9 | 20.9 | 0.00 | 0.00 | 0.00 | 54 | 1014.0 |
| 20260506233009 | 21 | 163 | 12.9 | 20.9 | 0.00 | 0.00 | 0.00 | 53 | 1014.0 |
| 20260506232505 | 21 | 156 | 11.3 | 22.5 | 0.00 | 0.00 | 0.00 | 53 | 1013.9 |
| 20260506232001 | 21 | 169 | 11.3 | 16.1 | 0.00 | 0.00 | 0.00 | 52 | 1014.0 |
| 20260506231459 | 21 | 169 | 11.3 | 17.7 | 0.00 | 0.00 | 0.00 | 52 | 1014.2 |
| 20260506230956 | 21 | 152 | 11.3 | 16.1 | 0.00 | 0.00 | 0.00 | 53 | 1014.0 |
| 20260506230452 | 22 | 177 | 8.0 | 11.3 | 0.00 | 0.00 | 0.00 | 51 | 1014.1 |
| 20260506225949 | 22 | 164 | 9.7 | 14.5 | 0.00 | 0.00 | 0.00 | 52 | 1014.2 |
| 20260506225446 | 22 | 303 | 6.4 | 17.7 | 0.00 | 0.00 | 0.00 | 53 | 1014.2 |
| 20260506224943 | 21 | 164 | 11.3 | 17.7 | 0.00 | 0.00 | 0.00 | 52 | 1014.2 |
| 20260506224440 | 22 | 184 | 9.7 | 20.9 | 0.00 | 0.00 | 0.00 | 50 | 1014.2 |
| 20260506223936 | 22 | 183 | 4.8 | 14.5 | 0.00 | 0.00 | 0.00 | 51 | 1014.2 |
| 20260506223432 | 22 | 228 | 6.4 | 12.9 | 0.00 | 0.00 | 0.00 | 50 | 1014.2 |
| 20260506222930 | 22 | 157 | 14.5 | 17.7 | 0.00 | 0.00 | 0.00 | 50 | 1014.2 |
| 20260506222426 | 23 | 170 | 6.4 | 11.3 | 0.00 | 0.00 | 0.00 | 50 | 1014.5 |
| 20260506221923 | 23 | 152 | 6.4 | 9.7 | 0.00 | 0.00 | 0.00 | 49 | 1014.5 |
| 20260506221420 | 23 | 241 | 1.6 | 9.7 | 0.00 | 0.00 | 0.00 | 49 | 1014.8 |
| 20260506220918 | 22 | 166 | 3.2 | 16.1 | 0.00 | 0.00 | 0.00 | 52 | 1014.5 |
| 20260506220413 | 22 | 170 | 6.4 | 14.5 | 0.00 | 0.00 | 0.00 | 51 | 1014.7 |
| 20260506215910 | 22 | 215 | 8.0 | 11.3 | 0.00 | 0.00 | 0.00 | 50 | 1014.7 |
| 20260506215406 | 23 | 152 | 12.9 | 17.7 | 0.00 | 0.00 | 0.00 | 48 | 1014.7 |
| 20260506214902 | 23 | 136 | 8.0 | 14.5 | 0.00 | 0.00 | 0.00 | 48 | 1014.7 |
| 20260506214359 | 22 | 226 | 1.6 | 4.8 | 0.00 | 0.00 | 0.00 | 50 | 1014.8 |
| 20260506213857 | 23 | 164 | 11.3 | 16.1 | 0.00 | 0.00 | 0.00 | 48 | 1014.9 |
| 20260506213354 | 23 | 162 | 4.8 | 12.9 | 0.00 | 0.00 | 0.00 | 49 | 1015.0 |
| 20260506212851 | 22 | 165 | 6.4 | 12.9 | 0.00 | 0.00 | 0.00 | 50 | 1015.0 |
| 20260506212347 | 22 | 175 | 11.3 | 14.5 | 0.00 | 0.00 | 0.00 | 49 | 1015.1 |
| 20260506211842 | 23 | 124 | 4.8 | 9.7 | 0.00 | 0.00 | 0.00 | 49 | 1015.1 |
| 20260506211338 | 22 | 206 | 11.3 | 17.7 | 0.00 | 0.00 | 0.00 | 49 | 1015.4 |
| 20260506210836 | 23 | 175 | 8.0 | 14.5 | 0.00 | 0.00 | 0.00 | 48 | 1015.3 |
| 20260506210332 | 23 | 130 | 6.4 | 9.7 | 0.00 | 0.00 | 0.00 | 47 | 1015.3 |
| 20260506205830 | 23 | 185 | 8.0 | 9.7 | 0.00 | 0.00 | 0.00 | 47 | 1015.3 |
| 20260506205325 | 22 | 339 | 6.4 | 11.3 | 0.00 | 0.00 | 0.00 | 48 | 1015.5 |
| 20260506204822 | 23 | 137 | 9.7 | 14.5 | 0.00 | 0.00 | 0.00 | 47 | 1015.4 |
| 20260506204320 | 22 | 194 | 1.6 | 11.3 | 0.00 | 0.00 | 0.00 | 49 | 1015.4 |
| 20260506203817 | 23 | 313 | 6.4 | 20.9 | 0.00 | 0.00 | 0.00 | 48 | 1015.4 |
| 20260506203314 | 23 | 242 | 4.8 | 9.7 | 0.00 | 0.00 | 0.00 | 47 | 1015.5 |
| 20260506202811 | 23 | 308 | 3.2 | 4.8 | 0.00 | 0.00 | 0.00 | 47 | 1015.4 |
| 20260506202308 | 22 | 182 | 3.2 | 6.4 | 0.00 | 0.00 | 0.00 | 49 | 1015.7 |
| 20260506201804 | 22 | 119 | 4.8 | 11.3 | 0.00 | 0.00 | 0.00 | 49 | 1015.7 |
| 20260506201302 | 22 | 182 | 6.4 | 11.3 | 0.00 | 0.00 | 0.00 | 48 | 1015.8 |
| 20260506200759 | 22 | 120 | 4.8 | 9.7 | 0.00 | 0.00 | 0.00 | 49 | 1015.9 |
| 20260506200255 | 22 | 2 | 1.6 | 12.9 | 0.00 | 0.00 | 0.00 | 48 | 1015.8 |
| 20260506195751 | 22 | 162 | 3.2 | 4.8 | 0.00 | 0.00 | 0.00 | 49 | 1015.7 |
| 20260506195248 | 21 | 332 | 0.0 | 6.4 | 0.00 | 0.00 | 0.00 | 51 | 1015.9 |
| 20260506194746 | 21 | 49 | 0.0 | 3.2 | 0.00 | 0.00 | 0.00 | 52 | 1015.9 |
| 20260506194242 | 22 | 145 | 9.7 | 12.9 | 0.00 | 0.00 | 0.00 | 48 | 1016.0 |
| 20260506193740 | 22 | 300 | 3.2 | 4.8 | 0.00 | 0.00 | 0.00 | 51 | 1016.1 |
| 20260506193236 | 22 | 159 | 8.0 | 9.7 | 0.00 | 0.00 | 0.00 | 50 | 1016.2 |
| 20260506192732 | 21 | 213 | 3.2 | 6.4 | 0.00 | 0.00 | 0.00 | 52 | 1016.2 |
| 20260506192229 | 21 | 343 | 3.2 | 9.7 | 0.00 | 0.00 | 0.00 | 52 | 1016.2 |
| 20260506191726 | 21 | 167 | 6.4 | 9.7 | 0.00 | 0.00 | 0.00 | 51 | 1016.4 |
| 20260506191222 | 22 | 218 | 4.8 | 9.7 | 0.00 | 0.00 | 0.00 | 51 | 1016.3 |
| 20260506190720 | 21 | 288 | 3.2 | 4.8 | 0.00 | 0.00 | 0.00 | 51 | 1016.5 |
| 20260506190216 | 21 | 218 | 3.2 | 4.8 | 0.00 | 0.00 | 0.00 | 53 | 1016.5 |
| 20260506185714 | 20 | 152 | 3.2 | 11.3 | 0.00 | 0.00 | 0.00 | 55 | 1016.5 |
| 20260506185209 | 21 | 276 | 1.6 | 6.4 | 0.00 | 0.00 | 0.00 | 53 | 1016.5 |
| 20260506184707 | 20 | 213 | 4.8 | 9.7 | 0.00 | 0.00 | 0.00 | 53 | 1016.6 |
| 20260506184204 | 20 | 263 | 6.4 | 6.4 | 0.00 | 0.00 | 0.00 | 53 | 1016.8 |
| 20260506183701 | 20 | 143 | 1.6 | 11.3 | 0.00 | 0.00 | 0.00 | 56 | 1016.7 |
| 20260506183157 | 20 | 128 | 4.8 | 6.4 | 0.00 | 0.00 | 0.00 | 53 | 1016.7 |
| 20260506182654 | 20 | 199 | 6.4 | 11.3 | 0.00 | 0.00 | 0.00 | 56 | 1016.7 |
| 20260506182151 | 20 | 178 | 8.0 | 11.3 | 0.00 | 0.00 | 0.00 | 56 | 1016.6 |
| 20260506181649 | 19 | 202 | 3.2 | 4.8 | 0.00 | 0.00 | 0.00 | 58 | 1016.8 |
| 20260506181146 | 19 | 169 | 8.0 | 11.3 | 0.00 | 0.00 | 0.00 | 56 | 1016.7 |
| 20260506180643 | 19 | 38 | 0.0 | 4.8 | 0.00 | 0.00 | 0.00 | 57 | 1016.9 |
| 20260506180139 | 20 | 211 | 8.0 | 14.5 | 0.00 | 0.00 | 0.00 | 57 | 1016.9 |
| 20260506175636 | 20 | 350 | 1.6 | 3.2 | 0.00 | 0.00 | 0.00 | 57 | 1016.8 |
| 20260506175132 | 19 | 165 | 3.2 | 11.3 | 0.00 | 0.00 | 0.00 | 58 | 1016.7 |
| 20260506174631 | 19 | 72 | 1.6 | 4.8 | 0.00 | 0.00 | 0.00 | 58 | 1016.8 |
| 20260506174127 | 18 | 263 | 3.2 | 9.7 | 0.00 | 0.00 | 0.00 | 59 | 1016.8 |
| 20260506173625 | 18 | 157 | 4.8 | 9.7 | 0.00 | 0.00 | 0.00 | 60 | 1016.7 |
| 20260506173122 | 18 | 39 | 1.6 | 9.7 | 0.00 | 0.00 | 0.00 | 60 | 1016.9 |
| 20260506172619 | 18 | 159 | 9.7 | 12.9 | 0.00 | 0.00 | 0.00 | 58 | 1016.8 |
| 20260506172115 | 18 | 167 | 6.4 | 6.4 | 0.00 | 0.00 | 0.00 | 60 | 1016.7 |
| 20260506171613 | 18 | 9 | 0.0 | 9.7 | 0.00 | 0.00 | 0.00 | 59 | 1016.9 |
| 20260506171110 | 18 | 207 | 4.8 | 6.4 | 0.00 | 0.00 | 0.00 | 60 | 1016.8 |
| 20260506170607 | 18 | 86 | 4.8 | 9.7 | 0.00 | 0.00 | 0.00 | 60 | 1016.7 |
| 20260506170105 | 18 | 228 | 3.2 | 4.8 | 0.00 | 0.00 | 0.00 | 60 | 1016.8 |
| 20260506165603 | 18 | 121 | 3.2 | 6.4 | 0.00 | 0.00 | 0.00 | 62 | 1016.7 |
| 20260506165059 | 17 | 59 | 3.2 | 9.7 | 0.00 | 0.00 | 0.00 | 63 | 1016.8 |
| 20260506164556 | 17 | 77 | 3.2 | 9.7 | 0.00 | 0.00 | 0.00 | 64 | 1016.7 |
| 20260506164054 | 17 | 137 | 4.8 | 6.4 | 0.00 | 0.00 | 0.00 | 63 | 1016.9 |
| 20260506163549 | 16 | 102 | 1.6 | 6.4 | 0.00 | 0.00 | 0.00 | 65 | 1016.7 |
| 20260506163045 | 16 | 157 | 8.0 | 9.7 | 0.00 | 0.00 | 0.00 | 66 | 1016.7 |
| 20260506162542 | 16 | 229 | 3.2 | 4.8 | 0.00 | 0.00 | 0.00 | 67 | 1016.8 |
| 20260506162039 | 15 | 231 | 3.2 | 4.8 | 0.00 | 0.00 | 0.00 | 69 | 1016.7 |
| 20260506161537 | 15 | 117 | 3.2 | 4.8 | 0.00 | 0.00 | 0.00 | 72 | 1016.7 |
| 20260506161033 | 15 | 153 | 1.6 | 3.2 | 0.00 | 0.00 | 0.00 | 70 | 1016.8 |
| 20260506160531 | 15 | 43 | 1.6 | 1.6 | 0.00 | 0.00 | 0.00 | 69 | 1016.7 |
| 20260506160028 | 15 | 38 | 0.0 | 1.6 | 0.00 | 0.00 | 0.00 | 69 | 1016.7 |
| 20260506155526 | 16 | 236 | 3.2 | 3.2 | 0.00 | 0.00 | 0.00 | 66 | 1016.8 |
| 20260506153657 | 16 | 15 | 1.6 | 3.2 | 0.00 | 0.00 | 0.00 | 65 | 1016.7 |
| 20260506153155 | 15 | 30 | 0.0 | 1.6 | 0.00 | 0.00 | 0.00 | 67 | 1016.8 |
| 20260506152651 | 15 | 48 | 0.0 | 3.2 | 0.00 | 0.00 | 0.00 | 69 | 1017.0 |
| 20260506152149 | 16 | 104 | 3.2 | 4.8 | 0.00 | 0.00 | 0.00 | 67 | 1016.7 |
| 20260506151648 | 16 | 37 | 0.0 | 1.6 | 0.00 | 0.00 | 0.00 | 66 | 1016.9 |
| 20260506151144 | 16 | 27 | 0.0 | 1.6 | 0.00 | 0.00 | 0.00 | 67 | 1016.7 |
| 20260506150641 | 15 | 48 | 0.0 | 3.2 | 0.00 | 0.00 | 0.00 | 68 | 1016.9 |
| 20260506150138 | 15 | 23 | 0.0 | 1.6 | 0.00 | 0.00 | 0.00 | 68 | 1016.9 |
| 20260506145635 | 15 | 28 | 0.0 | 1.6 | 0.00 | 0.00 | 0.00 | 69 | 1016.8 |
| 20260506145131 | 14 | 43 | 0.0 | 3.2 | 0.00 | 0.00 | 0.00 | 71 | 1017.0 |
| 20260506144629 | 14 | 41 | 1.6 | 3.2 | 0.00 | 0.00 | 0.00 | 73 | 1016.8 |
| 20260506144125 | 14 | 30 | 0.0 | 1.6 | 0.00 | 0.00 | 0.00 | 72 | 1016.9 |
| 20260506143624 | 13 | 20 | 0.0 | 0.0 | 0.00 | 0.00 | 0.00 | 74 | 1017.0 |
| 20260506143121 | 13 | 355 | 3.2 | 3.2 | 0.00 | 0.00 | 0.00 | 74 | 1016.9 |
| 20260506142619 | 12 | 15 | 1.6 | 1.6 | 0.00 | 0.00 | 0.00 | 73 | 1016.9 |
| 20260506142117 | 12 | 32 | 0.0 | 0.0 | 0.00 | 0.00 | 0.00 | 74 | 1017.0 |
| 20260506141614 | 12 | 32 | 0.0 | 1.6 | 0.00 | 0.00 | 0.00 | 76 | 1016.9 |
| 20260506141113 | 12 | 32 | 0.0 | 0.0 | 0.00 | 0.00 | 0.00 | 76 | 1016.7 |
| 20260506140610 | 11 | 33 | 0.0 | 1.6 | 0.00 | 0.00 | 0.00 | 78 | 1016.7 |
| 20260506140107 | 11 | 24 | 1.6 | 1.6 | 0.00 | 0.00 | 0.00 | 80 | 1016.6 |
| 20260506135604 | 10 | 23 | 0.0 | 1.6 | 0.00 | 0.00 | 0.00 | 83 | 1016.5 |
| 20260506135100 | 10 | 23 | 0.0 | 1.6 | 0.00 | 0.00 | 0.00 | 84 | 1016.6 |
| 20260506134557 | 9 | 12 | 0.0 | 1.6 | 0.00 | 0.00 | 0.00 | 86 | 1016.7 |
| 20260506134052 | 8 | 12 | 0.0 | 0.0 | 0.00 | 0.00 | 0.00 | 87 | 1016.6 |
| 20260506133550 | 8 | 12 | 0.0 | 0.0 | 0.00 | 0.00 | 0.00 | 88 | 1016.2 |
| 20260506133047 | 8 | 12 | 0.0 | 1.6 | 0.00 | 0.00 | 0.00 | 87 | 1016.5 |
| 20260506132544 | 8 | 14 | 0.0 | 1.6 | 0.00 | 0.00 | 0.00 | 87 | 1016.6 |
| 20260506132041 | 8 | 5 | 0.0 | 0.0 | 0.00 | 0.00 | 0.00 | 88 | 1016.5 |
| 20260506131538 | 8 | 9 | 0.0 | 0.0 | 0.00 | 0.00 | 0.00 | 88 | 1016.4 |
| 20260506131034 | 8 | 8 | 0.0 | 0.0 | 0.00 | 0.00 | 0.00 | 88 | 1016.5 |
| 20260506130532 | 8 | 8 | 0.0 | 0.0 | 0.00 | 0.00 | 0.00 | 88 | 1016.4 |
| 20260506130029 | 8 | 9 | 0.0 | 0.0 | 0.00 | 0.00 | 0.00 | 88 | 1016.0 |
| 20260506125527 | 8 | 8 | 0.0 | 0.0 | 0.00 | 0.00 | 0.00 | 88 | 1016.1 |
| 20260506125025 | 8 | 11 | 0.0 | 0.0 | 0.00 | 0.00 | 0.00 | 87 | 1016.1 |
| 20260506124522 | 8 | 14 | 0.0 | 0.0 | 0.00 | 0.00 | 0.00 | 87 | 1016.1 |
| 20260506124020 | 8 | 12 | 0.0 | 0.0 | 0.00 | 0.00 | 0.00 | 86 | 1016.1 |
| 20260506123518 | 8 | 15 | 0.0 | 0.0 | 0.00 | 0.00 | 0.00 | 86 | 1016.0 |
| 20260506123016 | 8 | 25 | 0.0 | 0.0 | 0.00 | 0.00 | 0.00 | 85 | 1016.1 |
| 20260506122512 | 8 | 21 | 0.0 | 1.6 | 0.00 | 0.00 | 0.00 | 85 | 1016.0 |
| 20260506122010 | 8 | 18 | 1.6 | 3.2 | 0.00 | 0.00 | 0.00 | 85 | 1016.0 |
| 20260506121507 | 8 | 6 | 4.8 | 6.4 | 0.00 | 0.00 | 0.00 | 86 | 1016.0 |
| 20260506121003 | 8 | 347 | 3.2 | 3.2 | 0.00 | 0.00 | 0.00 | 87 | 1015.9 |
| 20260506120501 | 8 | 8 | 3.2 | 4.8 | 0.00 | 0.00 | 0.00 | 88 | 1015.9 |
| 20260506115958 | 8 | 7 | 1.6 | 1.6 | 0.00 | 0.00 | 0.00 | 89 | 1016.1 |
| 20260506115456 | 7 | 21 | 0.0 | 0.0 | 0.00 | 0.00 | 0.00 | 89 | 1015.9 |
| 20260506114954 | 7 | 21 | 0.0 | 0.0 | 0.00 | 0.00 | 0.00 | 88 | 1015.8 |
| 20260506114451 | 8 | 15 | 0.0 | 0.0 | 0.00 | 0.00 | 0.00 | 89 | 1015.7 |
| 20260506113950 | 8 | 15 | 0.0 | 0.0 | 0.00 | 0.00 | 0.00 | 89 | 1015.9 |
| 20260506113448 | 8 | 15 | 0.0 | 0.0 | 0.00 | 0.00 | 0.00 | 88 | 1015.8 |
| 20260506112944 | 8 | 15 | 0.0 | 0.0 | 0.00 | 0.00 | 0.00 | 88 | 1015.7 |
| 20260506112442 | 10 | 15 | 0.0 | 0.0 | 0.00 | 0.00 | 0.00 | 88 | 1015.6 |
| 20260506111938 | 8 | 15 | 0.0 | 0.0 | 0.00 | 0.00 | 0.00 | 90 | 1015.7 |
| 20260506111437 | 8 | 15 | 0.0 | 0.0 | 0.00 | 0.00 | 0.00 | 87 | 1015.6 |
| 20260506110933 | 8 | 15 | 0.0 | 0.0 | 0.00 | 0.00 | 0.00 | 86 | 1015.5 |
| 20260506110432 | 8 | 15 | 0.0 | 0.0 | 0.00 | 0.00 | 0.00 | 86 | 1015.6 |
| 20260506105927 | 8 | 15 | 0.0 | 0.0 | 0.00 | 0.00 | 0.00 | 89 | 1015.6 |
| 20260506105424 | 8 | 15 | 0.0 | 0.0 | 0.00 | 0.00 | 0.00 | 86 | 1015.7 |
| 20260506104921 | 8 | 15 | 0.0 | 0.0 | 0.00 | 0.00 | 0.00 | 86 | 1015.9 |
| 20260506104419 | 8 | 15 | 0.0 | 0.0 | 0.00 | 0.00 | 0.00 | 86 | 1015.8 |
| 20260506103917 | 8 | 16 | 0.0 | 0.0 | 0.00 | 0.00 | 0.00 | 85 | 1015.8 |
| 20260506103414 | 8 | 16 | 0.0 | 1.6 | 0.00 | 0.00 | 0.00 | 86 | 1015.8 |
| 20260506102911 | 8 | 23 | 0.0 | 0.0 | 0.00 | 0.00 | 0.00 | 86 | 1015.7 |
| 20260506102409 | 8 | 23 | 0.0 | 0.0 | 0.00 | 0.00 | 0.00 | 86 | 1015.7 |
| 20260506101906 | 8 | 23 | 0.0 | 0.0 | 0.00 | 0.00 | 0.00 | 84 | 1015.5 |
| 20260506101402 | 8 | 23 | 0.0 | 0.0 | 0.00 | 0.00 | 0.00 | 84 | 1015.8 |
| 20260506100900 | 8 | 23 | 0.0 | 0.0 | 0.00 | 0.00 | 0.00 | 84 | 1015.6 |
| 20260506100358 | 9 | 23 | 0.0 | 0.0 | 0.00 | 0.00 | 0.00 | 83 | 1015.7 |
| 20260506095856 | 9 | 24 | 0.0 | 0.0 | 0.00 | 0.00 | 0.00 | 82 | 1015.8 |
| 20260506095354 | 9 | 24 | 0.0 | 1.6 | 0.00 | 0.00 | 0.00 | 82 | 1015.6 |
| 20260506094850 | 9 | 23 | 0.0 | 1.6 | 0.00 | 0.00 | 0.00 | 82 | 1015.8 |
| 20260506094349 | 10 | 40 | 0.0 | 1.6 | 0.00 | 0.00 | 0.00 | 81 | 1015.8 |
| 20260506093846 | 10 | 3 | 0.0 | 3.2 | 0.00 | 0.00 | 0.00 | 80 | 1015.7 |
| 20260506093344 | 10 | 347 | 3.2 | 3.2 | 0.00 | 0.00 | 0.00 | 81 | 1015.8 |
| 20260506092841 | 10 | 8 | 1.6 | 1.6 | 0.00 | 0.00 | 0.00 | 81 | 1015.9 |
| 20260506092339 | 10 | 18 | 0.0 | 0.0 | 0.00 | 0.00 | 0.00 | 81 | 1015.9 |
| 20260506091836 | 10 | 16 | 0.0 | 0.0 | 0.00 | 0.00 | 0.00 | 81 | 1015.8 |
| 20260506091333 | 10 | 14 | 0.0 | 0.0 | 0.00 | 0.00 | 0.00 | 81 | 1015.7 |
| 20260506090830 | 10 | 21 | 0.0 | 1.6 | 0.00 | 0.00 | 0.00 | 81 | 1015.7 |
| 20260506090328 | 10 | 11 | 0.0 | 1.6 | 0.00 | 0.00 | 0.00 | 81 | 1016.1 |
| 20260506085824 | 10 | 11 | 3.2 | 4.8 | 0.00 | 0.00 | 0.00 | 81 | 1016.1 |
| 20260506085321 | 10 | 14 | 1.6 | 3.2 | 0.00 | 0.00 | 0.00 | 81 | 1016.2 |
| 20260506084817 | 10 | 18 | 0.0 | 3.2 | 0.00 | 0.00 | 0.00 | 82 | 1016.1 |
| 20260506084314 | 10 | 6 | 1.6 | 3.2 | 0.00 | 0.00 | 0.00 | 82 | 1016.3 |
| 20260506083811 | 10 | 11 | 1.6 | 1.6 | 0.00 | 0.00 | 0.00 | 82 | 1016.4 |
| 20260506083308 | 10 | 14 | 1.6 | 1.6 | 0.00 | 0.00 | 0.00 | 82 | 1016.4 |
| 20260506082806 | 10 | 16 | 0.0 | 0.0 | 0.00 | 0.00 | 0.00 | 82 | 1016.1 |
| 20260506082304 | 10 | 16 | 0.0 | 0.0 | 0.00 | 0.00 | 0.00 | 82 | 1016.1 |
| 20260506081759 | 10 | 16 | 0.0 | 0.0 | 0.00 | 0.00 | 0.00 | 80 | 1016.3 |
| 20260506081256 | 10 | 17 | 0.0 | 0.0 | 0.00 | 0.00 | 0.00 | 80 | 1016.3 |
| 20260506080754 | 10 | 6 | 1.6 | 1.6 | 0.00 | 0.00 | 0.00 | 79 | 1016.5 |
| 20260506080250 | 10 | 20 | 0.0 | 0.0 | 0.00 | 0.00 | 0.00 | 79 | 1016.2 |
| 20260506073234 | 10 | 10 | 0.0 | 1.6 | 0.00 | 0.00 | 0.00 | 80 | 1016.4 |
| 20260506072731 | 10 | 6 | 0.0 | 4.8 | 0.00 | 0.00 | 0.00 | 80 | 1016.3 |
| 20260506072229 | 10 | 358 | 0.0 | 1.6 | 0.00 | 0.00 | 0.00 | 80 | 1016.5 |
| 20260506071726 | 10 | 358 | 1.6 | 1.6 | 0.00 | 0.00 | 0.00 | 80 | 1016.4 |
| 20260506071224 | 10 | 1 | 3.2 | 3.2 | 0.00 | 0.00 | 0.00 | 82 | 1016.4 |
| 20260506070721 | 10 | 5 | 0.0 | 1.6 | 0.00 | 0.00 | 0.00 | 83 | 1016.2 |
| 20260506070218 | 10 | 16 | 0.0 | 0.0 | 0.00 | 0.00 | 0.00 | 84 | 1016.1 |
| 20260506062154 | 11 | 16 | 0.0 | 0.0 | 0.00 | 0.00 | 0.00 | 78 | 1015.6 |
| 20260506061650 | 11 | 16 | 0.0 | 1.6 | 0.00 | 0.00 | 0.00 | 77 | 1015.5 |
| 20260506061148 | 11 | 14 | 0.0 | 3.2 | 0.00 | 0.00 | 0.00 | 75 | 1015.5 |
| 20260506060647 | 11 | 358 | 3.2 | 4.8 | 0.00 | 0.00 | 0.00 | 76 | 1015.5 |
| 20260506060143 | 11 | 25 | 0.0 | 1.6 | 0.00 | 0.00 | 0.00 | 75 | 1015.5 |
| 20260506051115 | 11 | 9 | 0.0 | 0.0 | 0.00 | 0.00 | 0.00 | 75 | 1015.3 |
| 20260506050613 | 11 | 9 | 0.0 | 0.0 | 0.00 | 0.00 | 0.00 | 75 | 1015.1 |
| 20260506050110 | 12 | 9 | 0.0 | 0.0 | 0.00 | 0.00 | 0.00 | 79 | 1015.1 |
| 20260506045104 | 11 | 8 | 0.0 | 0.0 | 0.00 | 0.00 | 0.00 | 75 | 1014.9 |
| 20260506044602 | 11 | 8 | 0.0 | 0.0 | 0.00 | 0.00 | 0.00 | 75 | 1015.1 |
| 20260506044058 | 11 | 14 | 0.0 | 0.0 | 0.00 | 0.00 | 0.00 | 75 | 1014.9 |
| 20260506043555 | 11 | 14 | 0.0 | 0.0 | 0.00 | 0.00 | 0.00 | 77 | 1014.9 |
| 20260506043053 | 11 | 14 | 0.0 | 0.0 | 0.00 | 0.00 | 0.00 | 75 | 1014.8 |
| 20260506042552 | 12 | 14 | 0.0 | 0.0 | 0.00 | 0.00 | 0.00 | 74 | 1014.6 |
| 20260506042050 | 12 | 14 | 0.0 | 0.0 | 0.00 | 0.00 | 0.00 | 75 | 1014.6 |
| 20260506041548 | 12 | 14 | 0.0 | 0.0 | 0.00 | 0.00 | 0.00 | 75 | 1014.4 |
| 20260506041044 | 12 | 14 | 0.0 | 0.0 | 0.00 | 0.00 | 0.00 | 73 | 1014.4 |
| 20260506040542 | 12 | 14 | 0.0 | 0.0 | 0.00 | 0.00 | 0.00 | 75 | 1014.3 |
| 20260506040038 | 12 | 4 | 0.0 | 0.0 | 0.00 | 0.00 | 0.00 | 72 | 1014.3 |
| 20260506035535 | 12 | 358 | 0.0 | 0.0 | 0.00 | 0.00 | 0.00 | 71 | 1014.3 |
| 20260506035032 | 12 | 358 | 0.0 | 0.0 | 0.00 | 0.00 | 0.00 | 71 | 1014.2 |
| 20260506034530 | 13 | 358 | 0.0 | 0.0 | 0.00 | 0.00 | 0.00 | 70 | 1014.3 |
| 20260506034026 | 13 | 358 | 0.0 | 0.0 | 0.00 | 0.00 | 0.00 | 69 | 1014.0 |
| 20260506033524 | 13 | 30 | 0.0 | 0.0 | 0.00 | 0.00 | 0.00 | 68 | 1013.9 |
| 20260506033021 | 13 | 38 | 0.0 | 0.0 | 0.00 | 0.00 | 0.00 | 67 | 1014.0 |
| 20260506032518 | 14 | 42 | 0.0 | 1.6 | 0.00 | 0.00 | 0.00 | 66 | 1013.9 |
| 20260506032015 | 14 | 71 | 1.6 | 3.2 | 0.00 | 0.00 | 0.00 | 65 | 1013.9 |
| 20260506031512 | 14 | 82 | 1.6 | 3.2 | 0.00 | 0.00 | 0.00 | 64 | 1013.6 |
| 20260506031009 | 14 | 128 | 1.6 | 3.2 | 0.00 | 0.00 | 0.00 | 63 | 1013.6 |
| 20260506030507 | 15 | 5 | 0.0 | 1.6 | 0.00 | 0.00 | 0.00 | 63 | 1013.6 |
| 20260506030004 | 15 | 51 | 0.0 | 1.6 | 0.00 | 0.00 | 0.00 | 63 | 1013.6 |
| 20260506025501 | 15 | 59 | 0.0 | 1.6 | 0.00 | 0.00 | 0.00 | 63 | 1013.4 |
| 20260506024957 | 15 | 88 | 3.2 | 3.2 | 0.00 | 0.00 | 0.00 | 62 | 1013.2 |
| 20260506024454 | 15 | 91 | 1.6 | 3.2 | 0.00 | 0.00 | 0.00 | 63 | 1013.2 |
| 20260506023950 | 15 | 84 | 1.6 | 3.2 | 0.00 | 0.00 | 0.00 | 63 | 1013.2 |
| 20260506023447 | 15 | 96 | 1.6 | 3.2 | 0.00 | 0.00 | 0.00 | 63 | 1013.2 |
| 20260506022943 | 15 | 83 | 1.6 | 3.2 | 0.00 | 0.00 | 0.00 | 63 | 1013.1 |
| 20260506022441 | 15 | 55 | 0.0 | 3.2 | 0.00 | 0.00 | 0.00 | 63 | 1013.1 |
| 20260506021939 | 15 | 45 | 0.0 | 0.0 | 0.00 | 0.00 | 0.00 | 63 | 1013.1 |
| 20260506021436 | 15 | 156 | 3.2 | 4.8 | 0.00 | 0.00 | 0.00 | 63 | 1012.9 |
| 20260506020933 | 15 | 137 | 3.2 | 4.8 | 0.00 | 0.00 | 0.00 | 63 | 1012.8 |
| 20260506020431 | 15 | 188 | 3.2 | 6.4 | 0.00 | 0.00 | 0.00 | 63 | 1012.8 |
| 20260506015928 | 15 | 348 | 0.0 | 3.2 | 0.00 | 0.00 | 0.00 | 63 | 1012.8 |
| 20260506015426 | 15 | 151 | 4.8 | 9.7 | 0.00 | 0.00 | 0.00 | 62 | 1012.9 |
| 20260506014922 | 15 | 114 | 4.8 | 9.7 | 0.00 | 0.00 | 0.00 | 62 | 1012.9 |
| 20260506014419 | 15 | 166 | 3.2 | 4.8 | 0.00 | 0.00 | 0.00 | 61 | 1012.8 |
| 20260506013915 | 15 | 126 | 1.6 | 4.8 | 0.00 | 0.00 | 0.00 | 61 | 1012.9 |
| 20260506013414 | 15 | 143 | 3.2 | 6.4 | 0.00 | 0.00 | 0.00 | 62 | 1012.8 |
| 20260506012909 | 15 | 155 | 3.2 | 6.4 | 0.00 | 0.00 | 0.00 | 61 | 1012.9 |
| 20260506012406 | 15 | 212 | 3.2 | 6.4 | 0.00 | 0.00 | 0.00 | 61 | 1012.8 |
| 20260506011903 | 15 | 28 | 0.0 | 3.2 | 0.00 | 0.00 | 0.00 | 62 | 1013.0 |
| 20260506011400 | 15 | 298 | 0.0 | 4.8 | 0.00 | 0.00 | 0.00 | 61 | 1012.9 |
| 20260506010857 | 16 | 285 | 1.6 | 4.8 | 0.00 | 0.00 | 0.00 | 61 | 1012.8 |
| 20260506010356 | 15 | 175 | 6.4 | 11.3 | 0.00 | 0.00 | 0.00 | 61 | 1012.8 |
| 20260506005852 | 15 | 259 | 3.2 | 4.8 | 0.00 | 0.00 | 0.00 | 60 | 1012.7 |
| 20260506005349 | 15 | 50 | 1.6 | 3.2 | 0.00 | 0.00 | 0.00 | 61 | 1012.8 |
| 20260506004844 | 15 | 225 | 3.2 | 6.4 | 0.00 | 0.00 | 0.00 | 61 | 1012.7 |
| 20260506004343 | 16 | 186 | 4.8 | 6.4 | 0.00 | 0.00 | 0.00 | 60 | 1012.6 |
| 20260506003839 | 16 | 165 | 4.8 | 6.4 | 0.00 | 0.00 | 0.00 | 60 | 1012.6 |
| 20260506003335 | 16 | 147 | 6.4 | 11.3 | 0.00 | 0.00 | 0.00 | 59 | 1012.5 |
| 20260506002832 | 16 | 201 | 3.2 | 4.8 | 0.00 | 0.00 | 0.00 | 59 | 1012.8 |
| 20260506002328 | 16 | 226 | 1.6 | 6.4 | 0.00 | 0.00 | 0.00 | 59 | 1012.7 |
| 20260506001824 | 17 | 169 | 9.7 | 12.9 | 0.00 | 0.00 | 0.00 | 56 | 1012.6 |